createdAt,value
2024-05-09T00:02:59.811Z,7.7
2024-05-09T00:05:59.966Z,8.6
2024-05-09T00:08:59.755Z,7.6
2024-05-09T00:12:00.001Z,7.6
2024-05-09T00:14:59.792Z,6.7
2024-05-09T00:17:59.976Z,6.2
2024-05-09T00:20:59.826Z,8.5
2024-05-09T00:23:59.758Z,8.5
2024-05-09T00:26:59.785Z,8.6
2024-05-09T00:29:59.815Z,8.7
2024-05-09T00:32:59.796Z,10.7
2024-05-09T00:35:59.777Z,10.7
2024-05-09T00:38:59.727Z,7.7
2024-05-09T00:41:59.787Z,8.2
2024-05-09T00:44:59.736Z,11.3
2024-05-09T00:48:01.765Z,11.3
2024-05-09T00:51:00.565Z,9.9
2024-05-09T00:54:00.412Z,8.8
2024-05-09T00:57:01.698Z,9.9
2024-05-09T01:00:00.184Z,9.9
2024-05-09T01:02:59.884Z,8.2
2024-05-09T01:05:59.871Z,8.5
2024-05-09T01:08:59.758Z,8.9
2024-05-09T01:11:59.792Z,8.9
2024-05-09T01:14:59.743Z,9.8
2024-05-09T01:18:00.339Z,7.3
2024-05-09T01:20:59.888Z,7.8
2024-05-09T01:23:59.739Z,7.8
2024-05-09T01:26:59.746Z,9.5
2024-05-09T01:29:59.722Z,7.7
2024-05-09T01:32:59.995Z,7.2
2024-05-09T01:35:59.712Z,7.2
2024-05-09T01:38:59.739Z,5.7
2024-05-09T01:41:59.735Z,9.7
2024-05-09T01:44:59.789Z,8.8
2024-05-09T01:48:00.145Z,8.8
2024-05-09T01:50:59.782Z,9.8
2024-05-09T01:54:01.058Z,8.7
2024-05-09T01:56:59.756Z,8.1
2024-05-09T01:59:59.719Z,8.1
2024-05-09T02:03:00.858Z,9.8
2024-05-09T02:06:00.708Z,9.3
2024-05-09T02:09:00.549Z,11.1
2024-05-09T02:12:00.883Z,11.1
2024-05-09T02:15:00.588Z,9.2
2024-05-09T02:18:00.972Z,8.0
2024-05-09T02:21:00.864Z,8.6
2024-05-09T02:24:00.508Z,8.6
2024-05-09T02:27:00.594Z,8.7
2024-05-09T02:30:00.738Z,8.3
2024-05-09T02:33:00.881Z,8.9
2024-05-09T02:36:00.525Z,8.9
2024-05-09T02:39:00.626Z,9.5
2024-05-09T02:42:00.551Z,10.4
2024-05-09T02:45:00.542Z,8.6
2024-05-09T02:48:01.463Z,8.6
2024-05-09T02:51:00.584Z,9.5
2024-05-09T02:54:00.613Z,9.2
2024-05-09T02:57:00.553Z,8.3
2024-05-09T03:00:00.536Z,8.3
2024-05-09T03:03:00.754Z,8.9
2024-05-09T03:06:01.085Z,8.4
2024-05-09T03:09:00.523Z,9.3
2024-05-09T03:12:00.683Z,9.3
2024-05-09T03:15:00.536Z,9.5
2024-05-09T03:18:00.888Z,9.0
2024-05-09T03:21:00.669Z,9.9
2024-05-09T03:24:00.542Z,9.9
2024-05-09T03:27:00.497Z,9.1
2024-05-09T03:30:00.661Z,8.6
2024-05-09T03:33:00.846Z,10.3
2024-05-09T03:36:01.468Z,10.3
2024-05-09T03:39:00.522Z,10.2
2024-05-09T03:42:00.532Z,9.6
2024-05-09T03:45:00.562Z,9.6
2024-05-09T03:48:00.703Z,9.6
2024-05-09T03:51:00.593Z,9.3
2024-05-09T03:54:00.566Z,9.6
2024-05-09T03:57:00.727Z,10.0
2024-05-09T04:00:00.502Z,10.0
2024-05-09T04:03:00.783Z,8.8
2024-05-09T04:06:00.569Z,10.0
2024-05-09T04:09:00.569Z,8.9
2024-05-09T04:12:00.810Z,8.9
2024-05-09T04:15:00.507Z,11.9
2024-05-09T04:18:01.625Z,9.7
2024-05-09T04:21:01.909Z,8.5
2024-05-09T04:24:00.492Z,9.5
2024-05-09T04:27:00.473Z,9.5
2024-05-09T04:30:00.693Z,9.8
2024-05-09T04:33:01.425Z,8.7
2024-05-09T04:36:00.512Z,8.7
2024-05-09T04:39:00.454Z,8.7
2024-05-09T04:42:00.483Z,8.6
2024-05-09T04:45:00.513Z,8.5
2024-05-09T04:48:01.277Z,8.9
2024-05-09T04:51:00.786Z,8.9
2024-05-09T04:54:00.574Z,8.3
2024-05-09T04:57:00.529Z,10.1
2024-05-09T05:00:00.452Z,8.9
2024-05-09T05:03:00.611Z,8.9
2024-05-09T05:06:00.501Z,9.1
2024-05-09T05:09:00.577Z,8.2
2024-05-09T05:12:00.635Z,8.8
2024-05-09T05:15:00.509Z,8.8
2024-05-09T05:18:00.771Z,9.1
2024-05-09T05:21:00.543Z,9.6
2024-05-09T05:24:00.446Z,10.8
2024-05-09T05:27:00.471Z,10.8
2024-05-09T05:30:00.525Z,9.4
2024-05-09T05:33:00.937Z,10.2
2024-05-09T05:36:00.429Z,9.4
2024-05-09T05:39:00.455Z,9.4
2024-05-09T05:42:00.449Z,11.1
2024-05-09T05:45:00.565Z,8.2
2024-05-09T05:48:02.236Z,9.2
2024-05-09T05:51:03.867Z,9.2
2024-05-09T05:54:00.499Z,10.4
2024-05-09T05:57:00.504Z,9.6
2024-05-09T06:00:00.554Z,9.5
2024-05-09T06:03:00.651Z,9.5
2024-05-09T06:06:01.329Z,10.9
2024-05-09T06:09:00.496Z,9.1
2024-05-09T06:12:00.961Z,9.6
2024-05-09T06:15:00.464Z,9.6
2024-05-09T06:18:00.817Z,10.4
2024-05-09T06:21:02.114Z,9.7
2024-05-09T06:24:02.517Z,10.7
2024-05-09T06:27:00.455Z,10.7
2024-05-09T06:30:00.510Z,11.7
2024-05-09T06:33:00.666Z,12.3
2024-05-09T06:36:00.422Z,10.9
2024-05-09T06:39:00.513Z,10.9
2024-05-09T06:42:00.494Z,11.2
2024-05-09T06:45:00.491Z,12.5
2024-05-09T06:48:00.786Z,14.5
2024-05-09T06:51:00.571Z,14.5
2024-05-09T06:54:00.492Z,13.9
2024-05-09T06:57:00.470Z,13.0
2024-05-09T07:00:00.616Z,10.3
2024-05-09T07:03:03.639Z,10.3
2024-05-09T07:06:00.453Z,10.5
2024-05-09T07:09:00.440Z,10.6
2024-05-09T07:12:00.592Z,10.5
2024-05-09T07:15:00.447Z,10.5
2024-05-09T07:18:00.636Z,10.5
2024-05-09T07:21:00.547Z,9.0
2024-05-09T07:24:00.456Z,9.7
2024-05-09T07:27:00.422Z,9.7
2024-05-09T07:30:00.424Z,9.1
2024-05-09T07:33:00.862Z,7.5
2024-05-09T07:36:00.532Z,9.8
2024-05-09T07:39:00.417Z,9.8
2024-05-09T07:42:00.419Z,9.6
2024-05-09T07:45:20.549Z,9.6
2024-05-09T07:53:00.966Z,7.1
2024-05-09T07:54:01.410Z,7.9
2024-05-09T07:57:00.622Z,6.7
2024-05-09T08:00:00.486Z,7.1
2024-05-09T08:03:00.471Z,7.1
2024-05-09T08:06:00.396Z,7.2
2024-05-09T08:09:05.308Z,7.5
2024-05-09T08:12:00.436Z,6.3
2024-05-09T08:15:00.416Z,6.3
2024-05-09T08:18:01.075Z,7.2
2024-05-09T08:21:00.442Z,4.9
2024-05-09T08:24:00.447Z,6.4
2024-05-09T08:27:00.701Z,6.4
2024-05-09T08:30:00.468Z,6.0
2024-05-09T08:33:00.521Z,7.2
2024-05-09T08:36:00.452Z,7.1
2024-05-09T08:39:00.415Z,7.1
2024-05-09T08:42:00.728Z,6.9
2024-05-09T08:45:00.652Z,4.2
2024-05-09T08:48:01.518Z,4.7
2024-05-09T08:51:00.519Z,4.7
2024-05-09T08:54:00.426Z,5.1
2024-05-09T08:57:01.258Z,5.3
2024-05-09T09:00:04.888Z,5.1
2024-05-09T09:03:01.663Z,5.1
2024-05-09T09:06:01.264Z,7.2
2024-05-09T09:09:02.162Z,3.8
2024-05-09T09:12:00.455Z,8.3
2024-05-09T09:15:00.475Z,8.3
2024-05-09T09:18:01.109Z,5.1
2024-05-09T09:21:00.445Z,4.0
2024-05-09T09:24:00.396Z,4.1
2024-05-09T09:27:00.442Z,4.1
2024-05-09T09:30:00.385Z,5.0
2024-05-09T09:33:00.572Z,5.4
2024-05-09T09:36:01.674Z,5.1
2024-05-09T09:39:01.422Z,5.1
2024-05-09T09:42:01.481Z,5.6
2024-05-09T09:45:04.741Z,4.1
2024-05-09T09:48:00.890Z,3.9
2024-05-09T09:51:00.563Z,3.9
2024-05-09T09:54:01.990Z,6.9
2024-05-09T09:57:02.012Z,5.1
2024-05-09T10:00:00.658Z,4.2
2024-05-09T10:03:00.992Z,4.2
2024-05-09T10:06:00.920Z,4.5
2024-05-09T10:09:00.608Z,3.3
2024-05-09T10:12:09.532Z,4.8
2024-05-09T10:15:06.171Z,4.8
2024-05-09T10:18:04.124Z,3.2
2024-05-09T10:21:00.399Z,5.4
2024-05-09T10:24:02.254Z,4.3
2024-05-09T10:27:02.704Z,4.3
2024-05-09T10:30:01.501Z,5.6
2024-05-09T10:33:00.400Z,4.4
2024-05-09T10:36:01.946Z,3.0
2024-05-09T10:39:00.618Z,3.0
2024-05-09T10:42:00.498Z,6.5
2024-05-09T10:45:00.730Z,4.5
2024-05-09T10:48:00.602Z,4.4
2024-05-09T10:51:00.438Z,4.4
2024-05-09T10:54:00.407Z,3.7
2024-05-09T10:57:00.379Z,5.1
2024-05-09T11:00:00.440Z,4.4
2024-05-09T11:03:00.510Z,4.4
2024-05-09T11:06:00.763Z,4.9
2024-05-09T11:09:00.507Z,4.4
2024-05-09T11:12:01.230Z,3.4
2024-05-09T11:15:00.399Z,3.4
2024-05-09T11:18:00.521Z,4.0
2024-05-09T11:21:00.413Z,4.3
2024-05-09T11:24:00.416Z,4.1
2024-05-09T11:27:02.550Z,4.1
2024-05-09T11:30:00.429Z,4.7
2024-05-09T11:33:00.549Z,4.5
2024-05-09T11:36:00.442Z,3.4
2024-05-09T11:39:00.386Z,3.4
2024-05-09T11:42:00.425Z,4.6
2024-05-09T11:45:00.396Z,4.2
2024-05-09T11:48:00.552Z,2.9
2024-05-09T11:51:00.345Z,2.9
2024-05-09T11:54:00.512Z,3.2
2024-05-09T11:57:00.426Z,4.9
2024-05-09T12:00:00.307Z,4.5
2024-05-09T12:03:00.388Z,4.5
2024-05-09T12:06:00.749Z,3.2
2024-05-09T12:09:00.390Z,3.6
2024-05-09T12:12:00.360Z,5.2
2024-05-09T12:15:00.397Z,5.2
2024-05-09T12:18:03.481Z,4.5
2024-05-09T12:21:00.814Z,3.1
2024-05-09T12:24:00.329Z,4.2
2024-05-09T12:27:00.352Z,4.2
2024-05-09T12:30:00.414Z,4.4
2024-05-09T12:33:00.462Z,5.5
2024-05-09T12:36:00.387Z,4.0
2024-05-09T12:39:00.969Z,4.0
2024-05-09T12:42:00.406Z,6.3
2024-05-09T12:45:00.326Z,2.7
2024-05-09T12:48:00.728Z,5.2
2024-05-09T12:51:00.314Z,5.2
2024-05-09T12:54:00.400Z,4.6
2024-05-09T12:57:00.359Z,3.0
2024-05-09T13:00:00.390Z,4.7
2024-05-09T13:03:00.715Z,4.7
2024-05-09T13:06:00.446Z,3.3
2024-05-09T13:09:00.372Z,4.8
2024-05-09T13:12:00.484Z,4.4
2024-05-09T13:15:00.283Z,4.4
2024-05-09T13:18:02.998Z,4.7
2024-05-09T13:21:00.311Z,2.9
2024-05-09T13:24:00.539Z,4.6
2024-05-09T13:27:00.446Z,4.6
2024-05-09T13:30:00.302Z,5.0
2024-05-09T13:33:00.414Z,5.1
2024-05-09T13:36:00.312Z,3.0
2024-05-09T13:39:00.451Z,3.0
2024-05-09T13:42:00.331Z,4.2
2024-05-09T13:45:00.341Z,4.3
2024-05-09T13:48:00.564Z,6.0
2024-05-09T13:51:00.381Z,6.0
2024-05-09T13:54:00.402Z,3.8
2024-05-09T13:57:00.309Z,4.4
2024-05-09T14:00:00.304Z,2.0
2024-05-09T14:03:00.620Z,2.0
2024-05-09T14:06:00.430Z,3.5
2024-05-09T14:09:00.427Z,3.2
2024-05-09T14:12:00.285Z,2.8
2024-05-09T14:15:00.372Z,2.8
2024-05-09T14:18:00.354Z,4.3
2024-05-09T14:21:00.933Z,4.6
2024-05-09T14:24:00.279Z,4.4
2024-05-09T14:27:00.366Z,4.4
2024-05-09T14:30:00.371Z,4.8
2024-05-09T14:33:00.380Z,5.3
2024-05-09T14:36:00.298Z,3.3
2024-05-09T14:39:00.349Z,3.3
2024-05-09T14:42:00.251Z,3.3
2024-05-09T14:45:00.285Z,2.8
2024-05-09T14:48:00.533Z,4.5
2024-05-09T14:51:00.371Z,4.5
2024-05-09T14:54:00.297Z,4.0
2024-05-09T14:57:00.310Z,3.2
2024-05-09T15:00:00.245Z,5.8
2024-05-09T15:03:00.724Z,5.8
2024-05-09T15:06:00.344Z,3.3
2024-05-09T15:09:00.303Z,2.9
2024-05-09T15:12:00.648Z,4.9
2024-05-09T15:15:00.306Z,4.9
2024-05-09T15:18:00.504Z,3.4
2024-05-09T15:21:00.321Z,2.2
2024-05-09T15:24:00.284Z,6.7
2024-05-09T15:27:00.262Z,6.7
2024-05-09T15:30:00.330Z,5.0
2024-05-09T15:33:01.327Z,5.5
2024-05-09T15:36:00.275Z,4.0
2024-05-09T15:39:00.318Z,4.0
2024-05-09T15:42:01.298Z,4.1
2024-05-09T15:45:00.312Z,2.7
2024-05-09T15:48:01.051Z,4.1
2024-05-09T15:51:00.307Z,4.1
2024-05-09T15:54:00.294Z,3.4
2024-05-09T15:57:00.274Z,2.9
2024-05-09T16:00:00.321Z,3.2
2024-05-09T16:03:00.289Z,3.2
2024-05-09T16:06:00.346Z,2.8
2024-05-09T16:09:00.334Z,4.8
2024-05-09T16:12:00.310Z,3.8
2024-05-09T16:15:00.276Z,3.8
2024-05-09T16:18:00.420Z,4.1
2024-05-09T16:21:00.555Z,4.1
2024-05-09T16:24:00.268Z,3.3
2024-05-09T16:27:00.279Z,3.3
2024-05-09T16:30:00.258Z,3.3
2024-05-09T16:33:00.365Z,2.8
2024-05-09T16:36:00.262Z,2.8
2024-05-09T16:39:00.241Z,2.8
2024-05-09T16:42:00.401Z,3.9
2024-05-09T16:45:00.240Z,3.2
2024-05-09T16:48:00.643Z,2.9
2024-05-09T16:51:00.239Z,2.9
2024-05-09T16:54:00.264Z,2.6
2024-05-09T16:57:00.304Z,4.4
2024-05-09T17:00:00.204Z,4.0
2024-05-09T17:03:00.315Z,4.0
2024-05-09T17:06:00.312Z,5.8
2024-05-09T17:09:08.323Z,3.6
2024-05-09T17:12:00.253Z,3.7
2024-05-09T17:18:00.718Z,5.0
2024-05-09T17:21:00.253Z,4.3
2024-05-09T17:24:00.240Z,5.4
2024-05-09T17:27:00.280Z,5.4
2024-05-09T17:30:00.240Z,2.6
2024-05-09T17:33:00.412Z,6.2
2024-05-09T17:36:00.245Z,3.6
2024-05-09T17:39:00.274Z,3.6
2024-05-09T17:42:00.238Z,2.5
2024-05-09T17:45:00.383Z,3.3
2024-05-09T17:48:00.505Z,3.0
2024-05-09T17:51:00.259Z,3.0
2024-05-09T17:54:00.223Z,3.1
2024-05-09T17:57:00.239Z,4.3
2024-05-09T18:00:00.241Z,2.5
2024-05-09T18:03:00.377Z,2.5
2024-05-09T18:06:00.289Z,4.2
2024-05-09T18:09:00.181Z,4.7
2024-05-09T18:12:00.290Z,4.1
2024-05-09T18:15:00.630Z,4.1
2024-05-09T18:18:00.786Z,3.6
2024-05-09T18:21:00.240Z,4.2
2024-05-09T18:24:00.447Z,5.7
2024-05-09T18:27:00.243Z,5.7
2024-05-09T18:30:00.258Z,4.4
2024-05-09T18:33:00.369Z,3.7
2024-05-09T18:36:00.249Z,5.2
2024-05-09T18:39:00.179Z,5.2
2024-05-09T18:42:00.194Z,5.6
2024-05-09T18:45:00.304Z,4.6
2024-05-09T18:48:00.487Z,4.9
2024-05-09T18:51:00.252Z,4.9
2024-05-09T18:54:00.317Z,4.8
2024-05-09T18:57:00.307Z,4.3
2024-05-09T19:00:00.175Z,2.8
2024-05-09T19:03:00.389Z,2.8
2024-05-09T19:06:01.419Z,4.5
2024-05-09T19:09:00.287Z,3.5
2024-05-09T19:12:00.256Z,3.7
2024-05-09T19:15:00.258Z,3.7
2024-05-09T19:18:00.320Z,5.2
2024-05-09T19:21:00.231Z,4.9
2024-05-09T19:24:00.200Z,5.6
2024-05-09T19:27:00.232Z,5.6
2024-05-09T19:30:00.213Z,5.4
2024-05-09T19:33:00.343Z,3.8
2024-05-09T19:36:00.207Z,4.7
2024-05-09T19:39:00.167Z,4.7
2024-05-09T19:42:00.186Z,3.3
2024-05-09T19:45:00.226Z,3.3
2024-05-09T19:48:00.630Z,4.4
2024-05-09T19:51:00.237Z,4.4
2024-05-09T19:54:00.177Z,5.8
2024-05-09T19:57:00.195Z,4.1
2024-05-09T20:00:00.312Z,4.9
2024-05-09T20:03:00.265Z,4.9
2024-05-09T20:06:00.202Z,4.7
2024-05-09T20:09:00.256Z,2.3
2024-05-09T20:12:00.277Z,4.7
2024-05-09T20:15:00.228Z,4.7
2024-05-09T20:18:00.455Z,4.6
2024-05-09T20:21:00.626Z,4.2
2024-05-09T20:24:00.194Z,6.7
2024-05-09T20:27:00.136Z,6.7
2024-05-09T20:30:00.197Z,4.5
2024-05-09T20:33:01.539Z,4.0
2024-05-09T20:36:01.786Z,4.7
2024-05-09T20:39:00.160Z,4.7
2024-05-09T20:42:00.849Z,3.5
2024-05-09T20:45:00.173Z,2.7
2024-05-09T20:48:00.489Z,4.1
2024-05-09T20:51:00.155Z,4.1
2024-05-09T20:54:00.174Z,4.7
2024-05-09T20:57:00.182Z,3.6
2024-05-09T21:00:00.154Z,3.4
2024-05-09T21:03:00.201Z,3.4
2024-05-09T21:06:00.151Z,3.3
2024-05-09T21:09:00.196Z,4.5
2024-05-09T21:12:00.202Z,3.9
2024-05-09T21:15:00.155Z,3.9
2024-05-09T21:18:00.286Z,3.3
2024-05-09T21:21:00.178Z,3.7
2024-05-09T21:24:00.162Z,5.2
2024-05-09T21:27:00.115Z,5.2
2024-05-09T21:30:00.154Z,3.1
2024-05-09T21:33:00.197Z,5.5
2024-05-09T21:36:00.139Z,3.3
2024-05-09T21:39:00.133Z,3.3
2024-05-09T21:42:00.173Z,3.3
2024-05-09T21:45:00.159Z,6.3
2024-05-09T21:48:02.674Z,3.3
2024-05-09T21:51:00.136Z,3.3
2024-05-09T21:54:00.147Z,3.6
2024-05-09T21:57:00.176Z,3.6
2024-05-09T22:00:00.166Z,5.8
2024-05-09T22:03:00.254Z,5.8
2024-05-09T22:06:00.136Z,3.3
2024-05-09T22:09:00.142Z,4.9
2024-05-09T22:12:00.233Z,3.7
2024-05-09T22:15:00.178Z,3.7
2024-05-09T22:18:00.283Z,5.0
2024-05-09T22:21:00.182Z,3.9
2024-05-09T22:24:00.124Z,4.9
2024-05-09T22:27:00.128Z,4.9
2024-05-09T22:30:00.118Z,4.5
2024-05-09T22:33:00.257Z,5.7
2024-05-09T22:36:00.135Z,5.6
2024-05-09T22:39:00.141Z,5.6
2024-05-09T22:42:00.103Z,3.7
2024-05-09T22:45:00.270Z,3.4
2024-05-09T22:48:00.489Z,3.3
2024-05-09T22:51:00.120Z,3.3
2024-05-09T22:54:01.553Z,4.6
2024-05-09T22:57:00.167Z,6.5
2024-05-09T23:00:00.119Z,6.1
2024-05-09T23:03:00.326Z,6.1
2024-05-09T23:06:04.375Z,3.9
2024-05-09T23:09:00.144Z,4.0
2024-05-09T23:12:00.164Z,3.9
2024-05-09T23:15:00.130Z,3.9
2024-05-09T23:18:00.277Z,5.3
2024-05-09T23:21:00.211Z,4.9
2024-05-09T23:24:00.093Z,9.1
2024-05-09T23:27:00.146Z,9.1
2024-05-09T23:30:00.133Z,4.9
2024-05-09T23:33:00.261Z,3.8
2024-05-09T23:36:00.148Z,4.2
2024-05-09T23:39:00.103Z,4.2
2024-05-09T23:42:00.107Z,6.6
2024-05-09T23:45:00.155Z,4.6
2024-05-09T23:48:00.299Z,3.8
2024-05-09T23:51:00.191Z,3.8
2024-05-09T23:54:00.069Z,4.5
2024-05-09T23:57:00.152Z,4.7
